CheckWX is a tool to help pilots better visualize weather data.  It is not intended as a substitute for an official pre-flight weather briefing.

04:43:40 UTC

KSRQ TAF
Sarasota / Bradenton International Airport
Sarasota/Bradenton, Florida, USA
KSRQ 230420Z 2300/2324 31011KT P6SM SKC FM230200 32006KT P6SM SKC FM230600 VRB04KT P6SM SKC FM231400 07008KT P6SM SKC FM231800 23010KT P6SM SKC FM232100 29010KT P6SM SKC

Mar-23@
00:00 UTC

Mar-23 @ 00:00 UTC

Mar-23@
02:00 UTC

Mar-23 @ 02:00 UTC

KSRQ 230420Z 2300/2324 31011KT P6SM SKC

Expired

Wind
  • 310° at 11 KTS
Cloud Levels
  • Clear skies

Mar-23@
02:00 UTC

Mar-23 @ 02:00 UTC

Mar-23@
06:00 UTC

Mar-23 @ 06:00 UTC

FM230200 32006KT P6SM SKC

From

From Standard forecast or significant change

Wind
  • 320° at 6 KTS
Cloud Levels
  • Clear skies

Mar-23@
06:00 UTC

Mar-23 @ 06:00 UTC

Mar-23@
14:00 UTC

Mar-23 @ 14:00 UTC

FM230600 VRB04KT P6SM SKC

From

From Standard forecast or significant change

Wind
  • Variable at 4 KTS
Cloud Levels
  • Clear skies

Mar-23@
14:00 UTC

Mar-23 @ 14:00 UTC

Mar-23@
18:00 UTC

Mar-23 @ 18:00 UTC

FM231400 07008KT P6SM SKC

From

From Standard forecast or significant change

Wind
  • 070° at 8 KTS
Cloud Levels
  • Clear skies

Mar-23@
18:00 UTC

Mar-23 @ 18:00 UTC

Mar-23@
21:00 UTC

Mar-23 @ 21:00 UTC

FM231800 23010KT P6SM SKC

From

From Standard forecast or significant change

Wind
  • 230° at 10 KTS
Cloud Levels
  • Clear skies

Mar-23@
21:00 UTC

Mar-23 @ 21:00 UTC

Mar-24@
00:00 UTC

Mar-24 @ 00:00 UTC

FM232100 29010KT P6SM SKC

From

From Standard forecast or significant change

Wind
  • 290° at 10 KTS
Cloud Levels
  • Clear skies